ROAH(METAR)
08/23 05:30
METAR ROAH 222030Z 13009KT 9999 VCSH FEW020 29/25 Q1009 RMK 2CU020
A2981=
戻る
トップページへ戻る
IMOC Co,.Ltd.